sensor_id;sensor_type;location;lat;lon;timestamp;temperature;humidity
39655;DHT22;25336;59.944;11.010;2023-04-01T00:02:00;-2.90;50.10
39655;DHT22;25336;59.944;11.010;2023-04-01T00:04:26;-2.90;50.10
39655;DHT22;25336;59.944;11.010;2023-04-01T00:06:52;-2.90;50.20
39655;DHT22;25336;59.944;11.010;2023-04-01T00:09:18;-3.00;50.30
39655;DHT22;25336;59.944;11.010;2023-04-01T00:11:43;-3.00;50.30
39655;DHT22;25336;59.944;11.010;2023-04-01T00:14:12;-3.10;50.30
39655;DHT22;25336;59.944;11.010;2023-04-01T00:16:41;-3.10;50.40
39655;DHT22;25336;59.944;11.010;2023-04-01T00:19:06;-3.10;50.60
39655;DHT22;25336;59.944;11.010;2023-04-01T00:21:32;-3.20;51.20
39655;DHT22;25336;59.944;11.010;2023-04-01T00:23:57;-3.00;50.70
39655;DHT22;25336;59.944;11.010;2023-04-01T00:26:24;-3.30;50.80
39655;DHT22;25336;59.944;11.010;2023-04-01T00:28:50;-3.30;50.80
39655;DHT22;25336;59.944;11.010;2023-04-01T00:31:16;-3.30;50.90
39655;DHT22;25336;59.944;11.010;2023-04-01T00:33:41;-3.40;50.90
39655;DHT22;25336;59.944;11.010;2023-04-01T00:36:11;-3.40;51.10
39655;DHT22;25336;59.944;11.010;2023-04-01T00:38:38;-3.40;51.20
39655;DHT22;25336;59.944;11.010;2023-04-01T00:41:04;-3.50;51.10
39655;DHT22;25336;59.944;11.010;2023-04-01T00:43:30;-2.70;51.60
39655;DHT22;25336;59.944;11.010;2023-04-01T00:45:56;-3.50;51.30
39655;DHT22;25336;59.944;11.010;2023-04-01T00:48:24;-3.50;51.40
39655;DHT22;25336;59.944;11.010;2023-04-01T00:51:02;-3.50;51.50
39655;DHT22;25336;59.944;11.010;2023-04-01T00:53:30;-3.60;51.70
39655;DHT22;25336;59.944;11.010;2023-04-01T00:56:00;-3.60;51.50
39655;DHT22;25336;59.944;11.010;2023-04-01T00:58:29;-3.60;51.50
39655;DHT22;25336;59.944;11.010;2023-04-01T01:00:57;-3.50;51.60
39655;DHT22;25336;59.944;11.010;2023-04-01T01:03:24;-3.60;51.50
39655;DHT22;25336;59.944;11.010;2023-04-01T01:06:01;-3.60;51.60
39655;DHT22;25336;59.944;11.010;2023-04-01T01:08:56;-3.60;51.80
39655;DHT22;25336;59.944;11.010;2023-04-01T01:11:34;-3.60;52.00
39655;DHT22;25336;59.944;11.010;2023-04-01T01:14:14;-3.60;51.80
39655;DHT22;25336;59.944;11.010;2023-04-01T01:16:45;-3.60;51.90
39655;DHT22;25336;59.944;11.010;2023-04-01T01:24:55;-3.70;52.00
39655;DHT22;25336;59.944;11.010;2023-04-01T01:27:26;-3.50;52.00
39655;DHT22;25336;59.944;11.010;2023-04-01T01:30:13;-2.80;52.10
39655;DHT22;25336;59.944;11.010;2023-04-01T01:35:33;-3.60;51.70
39655;DHT22;25336;59.944;11.010;2023-04-01T01:38:04;-3.60;51.60
39655;DHT22;25336;59.944;11.010;2023-04-01T01:40:32;-3.50;51.60
39655;DHT22;25336;59.944;11.010;2023-04-01T01:43:04;-3.50;51.60
39655;DHT22;25336;59.944;11.010;2023-04-01T01:45:33;-3.40;51.60
39655;DHT22;25336;59.944;11.010;2023-04-01T01:48:02;-3.40;51.50
39655;DHT22;25336;59.944;11.010;2023-04-01T01:50:30;-3.30;51.50
39655;DHT22;25336;59.944;11.010;2023-04-01T01:53:07;-3.20;51.40
39655;DHT22;25336;59.944;11.010;2023-04-01T01:55:41;-3.20;51.40
39655;DHT22;25336;59.944;11.010;2023-04-01T01:58:22;-3.10;51.40
39655;DHT22;25336;59.944;11.010;2023-04-01T02:01:01;-3.10;51.30
39655;DHT22;25336;59.944;11.010;2023-04-01T02:03:31;-3.10;51.20
39655;DHT22;25336;59.944;11.010;2023-04-01T02:06:00;-3.00;51.10
39655;DHT22;25336;59.944;11.010;2023-04-01T02:08:33;-3.00;51.00
39655;DHT22;25336;59.944;11.010;2023-04-01T02:11:16;-3.00;51.00
39655;DHT22;25336;59.944;11.010;2023-04-01T02:13:52;-2.90;50.90
39655;DHT22;25336;59.944;11.010;2023-04-01T02:16:24;-2.90;50.80
39655;DHT22;25336;59.944;11.010;2023-04-01T02:18:53;-2.90;50.70
39655;DHT22;25336;59.944;11.010;2023-04-01T02:21:21;-2.90;50.60
39655;DHT22;25336;59.944;11.010;2023-04-01T02:23:49;-2.90;50.50
39655;DHT22;25336;59.944;11.010;2023-04-01T02:26:16;-2.90;50.50
39655;DHT22;25336;59.944;11.010;2023-04-01T02:28:43;-2.90;50.50
39655;DHT22;25336;59.944;11.010;2023-04-01T02:31:11;-2.80;50.50
39655;DHT22;25336;59.944;11.010;2023-04-01T02:33:39;-2.90;50.30
39655;DHT22;25336;59.944;11.010;2023-04-01T02:36:05;-2.90;50.30
39655;DHT22;25336;59.944;11.010;2023-04-01T02:38:31;-2.80;50.30
39655;DHT22;25336;59.944;11.010;2023-04-01T02:41:00;-2.90;50.20
39655;DHT22;25336;59.944;11.010;2023-04-01T02:43:27;-2.90;50.20
39655;DHT22;25336;59.944;11.010;2023-04-01T02:45:53;-2.90;50.10
39655;DHT22;25336;59.944;11.010;2023-04-01T02:48:19;-3.00;50.60
39655;DHT22;25336;59.944;11.010;2023-04-01T02:50:45;-3.00;50.00
39655;DHT22;25336;59.944;11.010;2023-04-01T02:53:11;-3.00;50.00
39655;DHT22;25336;59.944;11.010;2023-04-01T02:55:37;-3.10;50.00
39655;DHT22;25336;59.944;11.010;2023-04-01T02:58:03;-3.10;50.00
39655;DHT22;25336;59.944;11.010;2023-04-01T03:00:29;-3.10;50.10
39655;DHT22;25336;59.944;11.010;2023-04-01T03:02:54;-3.10;50.10
39655;DHT22;25336;59.944;11.010;2023-04-01T03:05:21;-3.10;50.10
39655;DHT22;25336;59.944;11.010;2023-04-01T03:07:46;-3.20;50.00
39655;DHT22;25336;59.944;11.010;2023-04-01T03:10:12;-3.20;50.10
39655;DHT22;25336;59.944;11.010;2023-04-01T03:12:38;-3.20;50.20
39655;DHT22;25336;59.944;11.010;2023-04-01T03:15:04;-3.30;50.10
39655;DHT22;25336;59.944;11.010;2023-04-01T03:17:30;-3.30;50.20
39655;DHT22;25336;59.944;11.010;2023-04-01T03:19:55;-3.30;50.30
39655;DHT22;25336;59.944;11.010;2023-04-01T03:22:21;-3.40;50.20
39655;DHT22;25336;59.944;11.010;2023-04-01T03:24:48;-3.40;50.20
39655;DHT22;25336;59.944;11.010;2023-04-01T03:27:13;-3.50;50.30
39655;DHT22;25336;59.944;11.010;2023-04-01T03:29:39;-3.50;50.40
39655;DHT22;25336;59.944;11.010;2023-04-01T03:32:05;-3.50;50.40
39655;DHT22;25336;59.944;11.010;2023-04-01T03:34:31;-3.60;50.40
39655;DHT22;25336;59.944;11.010;2023-04-01T03:36:57;-3.60;50.50
39655;DHT22;25336;59.944;11.010;2023-04-01T03:39:22;-3.70;50.60
39655;DHT22;25336;59.944;11.010;2023-04-01T03:41:48;-3.70;50.60
39655;DHT22;25336;59.944;11.010;2023-04-01T03:44:14;-3.70;50.70
39655;DHT22;25336;59.944;11.010;2023-04-01T03:46:40;-3.70;50.70
39655;DHT22;25336;59.944;11.010;2023-04-01T03:49:09;-3.70;50.80
39655;DHT22;25336;59.944;11.010;2023-04-01T03:51:42;-3.80;50.70
39655;DHT22;25336;59.944;11.010;2023-04-01T03:54:10;-3.80;51.10
39655;DHT22;25336;59.944;11.010;2023-04-01T03:56:36;-3.00;51.10
39655;DHT22;25336;59.944;11.010;2023-04-01T03:59:05;-3.80;50.70
39655;DHT22;25336;59.944;11.010;2023-04-01T04:01:30;-3.90;51.00
39655;DHT22;25336;59.944;11.010;2023-04-01T04:03:56;-3.90;50.70
39655;DHT22;25336;59.944;11.010;2023-04-01T04:06:23;-3.90;50.80
39655;DHT22;25336;59.944;11.010;2023-04-01T04:08:49;-3.90;50.80
39655;DHT22;25336;59.944;11.010;2023-04-01T04:11:16;-3.90;50.80
39655;DHT22;25336;59.944;11.010;2023-04-01T04:13:42;-4.00;50.80
39655;DHT22;25336;59.944;11.010;2023-04-01T04:16:09;-4.00;50.80
39655;DHT22;25336;59.944;11.010;2023-04-01T04:18:35;-4.10;50.80
39655;DHT22;25336;59.944;11.010;2023-04-01T04:21:01;-4.10;50.90
39655;DHT22;25336;59.944;11.010;2023-04-01T04:23:26;-4.20;50.90
39655;DHT22;25336;59.944;11.010;2023-04-01T04:25:57;-4.20;51.00
39655;DHT22;25336;59.944;11.010;2023-04-01T04:28:24;-4.20;51.00
39655;DHT22;25336;59.944;11.010;2023-04-01T04:30:50;-4.20;51.10
39655;DHT22;25336;59.944;11.010;2023-04-01T04:33:16;-4.20;51.20
39655;DHT22;25336;59.944;11.010;2023-04-01T04:35:41;-4.30;51.30
39655;DHT22;25336;59.944;11.010;2023-04-01T04:38:07;-4.20;51.50
39655;DHT22;25336;59.944;11.010;2023-04-01T04:40:33;-4.20;51.40
39655;DHT22;25336;59.944;11.010;2023-04-01T04:42:58;-4.10;51.40
39655;DHT22;25336;59.944;11.010;2023-04-01T04:45:24;-4.10;51.40
39655;DHT22;25336;59.944;11.010;2023-04-01T04:47:49;-4.00;51.40
39655;DHT22;25336;59.944;11.010;2023-04-01T04:50:16;-4.00;51.30
39655;DHT22;25336;59.944;11.010;2023-04-01T04:52:42;-3.90;51.30
39655;DHT22;25336;59.944;11.010;2023-04-01T04:55:07;-3.80;51.20
39655;DHT22;25336;59.944;11.010;2023-04-01T04:57:33;-3.80;51.20
39655;DHT22;25336;59.944;11.010;2023-04-01T04:59:59;-3.80;51.10
39655;DHT22;25336;59.944;11.010;2023-04-01T05:02:24;-3.70;51.00
39655;DHT22;25336;59.944;11.010;2023-04-01T05:04:50;-3.60;51.00
39655;DHT22;25336;59.944;11.010;2023-04-01T05:07:15;-3.60;51.00
39655;DHT22;25336;59.944;11.010;2023-04-01T05:09:41;-3.40;50.90
39655;DHT22;25336;59.944;11.010;2023-04-01T05:12:06;-3.50;50.90
39655;DHT22;25336;59.944;11.010;2023-04-01T05:14:32;-3.50;50.80
39655;DHT22;25336;59.944;11.010;2023-04-01T05:16:58;-3.50;50.70
39655;DHT22;25336;59.944;11.010;2023-04-01T05:19:23;-3.40;50.70
39655;DHT22;25336;59.944;11.010;2023-04-01T05:21:49;-3.40;50.60
39655;DHT22;25336;59.944;11.010;2023-04-01T05:24:15;-2.40;51.10
39655;DHT22;25336;59.944;11.010;2023-04-01T05:26:41;-3.40;50.50
39655;DHT22;25336;59.944;11.010;2023-04-01T05:29:06;-3.40;50.50
39655;DHT22;25336;59.944;11.010;2023-04-01T05:31:32;-3.30;50.50
39655;DHT22;25336;59.944;11.010;2023-04-01T05:33:57;-3.30;50.50
39655;DHT22;25336;59.944;11.010;2023-04-01T05:36:23;-3.30;50.60
39655;DHT22;25336;59.944;11.010;2023-04-01T05:38:49;-2.90;50.60
39655;DHT22;25336;59.944;11.010;2023-04-01T05:41:15;-3.30;50.50
39655;DHT22;25336;59.944;11.010;2023-04-01T05:43:41;-3.20;50.50
39655;DHT22;25336;59.944;11.010;2023-04-01T05:46:07;-3.20;50.40
39655;DHT22;25336;59.944;11.010;2023-04-01T05:48:33;-3.20;50.40
39655;DHT22;25336;59.944;11.010;2023-04-01T05:51:01;-3.10;50.40
39655;DHT22;25336;59.944;11.010;2023-04-01T05:53:26;-2.10;50.90
39655;DHT22;25336;59.944;11.010;2023-04-01T05:55:52;-3.10;50.40
39655;DHT22;25336;59.944;11.010;2023-04-01T05:58:18;-3.00;50.40
39655;DHT22;25336;59.944;11.010;2023-04-01T06:00:44;-2.90;50.40
39655;DHT22;25336;59.944;11.010;2023-04-01T06:03:10;-2.90;50.40
39655;DHT22;25336;59.944;11.010;2023-04-01T06:05:40;-2.90;50.30
39655;DHT22;25336;59.944;11.010;2023-04-01T06:08:17;-2.30;50.50
39655;DHT22;25336;59.944;11.010;2023-04-01T06:13:44;-2.70;50.30
39655;DHT22;25336;59.944;11.010;2023-04-01T06:16:38;-2.60;50.30
39655;DHT22;25336;59.944;11.010;2023-04-01T06:19:34;-2.60;50.20
39655;DHT22;25336;59.944;11.010;2023-04-01T06:25:26;-2.40;50.30
39655;DHT22;25336;59.944;11.010;2023-04-01T06:34:06;-2.20;50.10
39655;DHT22;25336;59.944;11.010;2023-04-01T06:50:49;-1.50;49.60
39655;DHT22;25336;59.944;11.010;2023-04-01T06:53:24;-1.40;49.60
39655;DHT22;25336;59.944;11.010;2023-04-01T06:55:55;-1.30;49.40
39655;DHT22;25336;59.944;11.010;2023-04-01T06:58:26;-1.20;49.40
39655;DHT22;25336;59.944;11.010;2023-04-01T07:00:57;-1.20;49.40
39655;DHT22;25336;59.944;11.010;2023-04-01T07:03:49;-1.00;49.90
39655;DHT22;25336;59.944;11.010;2023-04-01T07:06:31;-1.00;49.00
39655;DHT22;25336;59.944;11.010;2023-04-01T07:09:00;-0.60;49.00
39655;DHT22;25336;59.944;11.010;2023-04-01T07:11:31;-0.80;48.90
39655;DHT22;25336;59.944;11.010;2023-04-01T07:13:59;-0.70;48.80
39655;DHT22;25336;59.944;11.010;2023-04-01T07:16:38;-0.50;48.80
39655;DHT22;25336;59.944;11.010;2023-04-01T07:19:31;-0.40;48.60
39655;DHT22;25336;59.944;11.010;2023-04-01T07:22:04;-0.40;48.40
39655;DHT22;25336;59.944;11.010;2023-04-01T07:24:37;-0.30;48.50
39655;DHT22;25336;59.944;11.010;2023-04-01T07:27:10;-0.20;48.40
39655;DHT22;25336;59.944;11.010;2023-04-01T07:29:35;0.00;48.40
39655;DHT22;25336;59.944;11.010;2023-04-01T07:32:09;0.50;48.40
39655;DHT22;25336;59.944;11.010;2023-04-01T07:34:55;0.10;48.30
39655;DHT22;25336;59.944;11.010;2023-04-01T07:40:22;0.40;47.80
39655;DHT22;25336;59.944;11.010;2023-04-01T07:51:21;0.80;47.10
39655;DHT22;25336;59.944;11.010;2023-04-01T07:56:51;1.10;46.50
39655;DHT22;25336;59.944;11.010;2023-04-01T08:02:10;1.30;46.70
39655;DHT22;25336;59.944;11.010;2023-04-01T08:07:20;1.50;46.70
39655;DHT22;25336;59.944;11.010;2023-04-01T08:10:19;1.60;46.20
39655;DHT22;25336;59.944;11.010;2023-04-01T08:19:30;1.90;46.40
39655;DHT22;25336;59.944;11.010;2023-04-01T08:21:58;2.00;46.20
39655;DHT22;25336;59.944;11.010;2023-04-01T08:24:41;2.10;46.30
39655;DHT22;25336;59.944;11.010;2023-04-01T08:27:34;2.20;45.90
39655;DHT22;25336;59.944;11.010;2023-04-01T08:30:15;2.30;45.60
39655;DHT22;25336;59.944;11.010;2023-04-01T08:32:46;2.40;45.40
39655;DHT22;25336;59.944;11.010;2023-04-01T08:35:37;2.40;45.40
39655;DHT22;25336;59.944;11.010;2023-04-01T08:40:59;2.60;45.00
39655;DHT22;25336;59.944;11.010;2023-04-01T08:56:20;2.90;44.50
39655;DHT22;25336;59.944;11.010;2023-04-01T09:10:18;3.40;44.70
39655;DHT22;25336;59.944;11.010;2023-04-01T09:13:16;3.40;45.00
39655;DHT22;25336;59.944;11.010;2023-04-01T09:27:13;3.90;44.30
39655;DHT22;25336;59.944;11.010;2023-04-01T09:30:19;4.00;44.50
39655;DHT22;25336;59.944;11.010;2023-04-01T09:33:11;4.10;43.70
39655;DHT22;25336;59.944;11.010;2023-04-01T09:38:32;4.30;43.90
39655;DHT22;25336;59.944;11.010;2023-04-01T09:47:01;4.40;43.50
39655;DHT22;25336;59.944;11.010;2023-04-01T09:52:29;4.50;42.50
39655;DHT22;25336;59.944;11.010;2023-04-01T09:55:13;4.60;42.80
39655;DHT22;25336;59.944;11.010;2023-04-01T10:09:00;4.90;42.00
39655;DHT22;25336;59.944;11.010;2023-04-01T10:14:43;5.00;41.50
39655;DHT22;25336;59.944;11.010;2023-04-01T10:28:28;5.80;41.90
39655;DHT22;25336;59.944;11.010;2023-04-01T10:31:35;5.30;41.40
39655;DHT22;25336;59.944;11.010;2023-04-01T10:36:48;5.50;41.40
39655;DHT22;25336;59.944;11.010;2023-04-01T10:42:28;5.60;41.20
39655;DHT22;25336;59.944;11.010;2023-04-01T10:51:25;5.80;40.90
39655;DHT22;25336;59.944;11.010;2023-04-01T10:54:30;5.80;41.00
39655;DHT22;25336;59.944;11.010;2023-04-01T11:03:24;6.10;40.10
39655;DHT22;25336;59.944;11.010;2023-04-01T11:17:27;6.40;39.70
39655;DHT22;25336;59.944;11.010;2023-04-01T11:22:42;6.50;40.00
39655;DHT22;25336;59.944;11.010;2023-04-01T11:25:29;6.60;40.50
39655;DHT22;25336;59.944;11.010;2023-04-01T11:41:56;7.10;38.30
39655;DHT22;25336;59.944;11.010;2023-04-01T11:44:28;7.20;38.20
39655;DHT22;25336;59.944;11.010;2023-04-01T11:58:00;7.40;38.10
39655;DHT22;25336;59.944;11.010;2023-04-01T12:06:40;7.60;37.70
39655;DHT22;25336;59.944;11.010;2023-04-01T12:18:25;7.80;37.30
39655;DHT22;25336;59.944;11.010;2023-04-01T12:26:52;7.90;37.40
39655;DHT22;25336;59.944;11.010;2023-04-01T12:40:56;8.10;37.70
39655;DHT22;25336;59.944;11.010;2023-04-01T12:52:13;8.30;36.40
39655;DHT22;25336;59.944;11.010;2023-04-01T13:03:22;8.40;34.90
39655;DHT22;25336;59.944;11.010;2023-04-01T13:06:13;8.40;34.70
39655;DHT22;25336;59.944;11.010;2023-04-01T13:22:56;8.50;35.30
39655;DHT22;25336;59.944;11.010;2023-04-01T13:25:57;8.60;34.30
39655;DHT22;25336;59.944;11.010;2023-04-01T13:28:36;8.60;34.20
39655;DHT22;25336;59.944;11.010;2023-04-01T13:45:24;8.80;34.30
39655;DHT22;25336;59.944;11.010;2023-04-01T13:48:16;8.90;34.50
39655;DHT22;25336;59.944;11.010;2023-04-01T13:51:17;9.40;33.90
39655;DHT22;25336;59.944;11.010;2023-04-01T13:59:31;9.00;33.00
39655;DHT22;25336;59.944;11.010;2023-04-01T14:05:23;8.10;32.60
39655;DHT22;25336;59.944;11.010;2023-04-01T14:08:13;9.10;33.50
39655;DHT22;25336;59.944;11.010;2023-04-01T14:11:34;9.10;33.40
39655;DHT22;25336;59.944;11.010;2023-04-01T14:27:41;9.20;32.90
39655;DHT22;25336;59.944;11.010;2023-04-01T14:30:41;9.20;33.00
39655;DHT22;25336;59.944;11.010;2023-04-01T14:33:30;9.30;32.90
39655;DHT22;25336;59.944;11.010;2023-04-01T14:36:18;9.30;33.20
39655;DHT22;25336;59.944;11.010;2023-04-01T14:42:11;9.30;33.20
39655;DHT22;25336;59.944;11.010;2023-04-01T14:44:45;9.30;32.70
39655;DHT22;25336;59.944;11.010;2023-04-01T14:50:12;9.30;32.50
39655;DHT22;25336;59.944;11.010;2023-04-01T14:52:44;9.40;32.70
39655;DHT22;25336;59.944;11.010;2023-04-01T14:55:31;9.40;33.00
39655;DHT22;25336;59.944;11.010;2023-04-01T14:58:08;9.40;32.60
39655;DHT22;25336;59.944;11.010;2023-04-01T15:03:40;9.50;32.00
39655;DHT22;25336;59.944;11.010;2023-04-01T15:09:17;9.30;32.60
39655;DHT22;25336;59.944;11.010;2023-04-01T15:14:45;9.50;32.20
39655;DHT22;25336;59.944;11.010;2023-04-01T15:23:05;9.50;32.50
39655;DHT22;25336;59.944;11.010;2023-04-01T15:28:50;9.50;31.50
39655;DHT22;25336;59.944;11.010;2023-04-01T15:31:31;9.50;31.40
39655;DHT22;25336;59.944;11.010;2023-04-01T15:34:45;9.60;31.70
39655;DHT22;25336;59.944;11.010;2023-04-01T15:42:55;9.50;31.30
39655;DHT22;25336;59.944;11.010;2023-04-01T15:59:36;9.60;31.40
39655;DHT22;25336;59.944;11.010;2023-04-01T16:02:34;9.60;31.40
39655;DHT22;25336;59.944;11.010;2023-04-01T16:14:05;9.70;31.10
39655;DHT22;25336;59.944;11.010;2023-04-01T16:31:07;9.60;30.80
39655;DHT22;25336;59.944;11.010;2023-04-01T16:37:07;9.60;30.90
39655;DHT22;25336;59.944;11.010;2023-04-01T16:42:53;9.60;30.40
39655;DHT22;25336;59.944;11.010;2023-04-01T16:45:32;9.60;30.90
39655;DHT22;25336;59.944;11.010;2023-04-01T16:48:14;9.50;31.10
39655;DHT22;25336;59.944;11.010;2023-04-01T16:50:53;9.50;30.70
39655;DHT22;25336;59.944;11.010;2023-04-01T16:53:41;9.50;31.00
39655;DHT22;25336;59.944;11.010;2023-04-01T16:59:04;9.50;31.40
39655;DHT22;25336;59.944;11.010;2023-04-01T17:01:47;9.50;31.60
39655;DHT22;25336;59.944;11.010;2023-04-01T17:21:02;10.20;32.20
39655;DHT22;25336;59.944;11.010;2023-04-01T17:23:43;9.30;31.40
39655;DHT22;25336;59.944;11.010;2023-04-01T17:29:13;9.20;31.60
39655;DHT22;25336;59.944;11.010;2023-04-01T17:34:37;9.10;31.60
39655;DHT22;25336;59.944;11.010;2023-04-01T17:40:06;9.00;31.50
39655;DHT22;25336;59.944;11.010;2023-04-01T17:45:30;8.90;31.80
39655;DHT22;25336;59.944;11.010;2023-04-01T17:53:30;8.50;32.40
39655;DHT22;25336;59.944;11.010;2023-04-01T17:58:49;8.30;32.60
39655;DHT22;25336;59.944;11.010;2023-04-01T18:01:35;8.20;32.90
39655;DHT22;25336;59.944;11.010;2023-04-01T18:15:11;7.40;33.60
39655;DHT22;25336;59.944;11.010;2023-04-01T18:23:39;7.00;34.00
39655;DHT22;25336;59.944;11.010;2023-04-01T18:26:13;6.90;34.40
39655;DHT22;25336;59.944;11.010;2023-04-01T18:28:54;6.70;34.70
39655;DHT22;25336;59.944;11.010;2023-04-01T18:31:24;6.60;35.30
39655;DHT22;25336;59.944;11.010;2023-04-01T18:34:18;6.50;35.70
39655;DHT22;25336;59.944;11.010;2023-04-01T18:36:56;6.30;36.30
39655;DHT22;25336;59.944;11.010;2023-04-01T18:39:39;6.20;36.50
39655;DHT22;25336;59.944;11.010;2023-04-01T18:45:03;5.90;36.70
39655;DHT22;25336;59.944;11.010;2023-04-01T18:50:50;5.60;37.20
39655;DHT22;25336;59.944;11.010;2023-04-01T18:56:00;5.30;37.30
39655;DHT22;25336;59.944;11.010;2023-04-01T18:58:34;5.20;37.60
39655;DHT22;25336;59.944;11.010;2023-04-01T19:06:50;4.70;38.70
39655;DHT22;25336;59.944;11.010;2023-04-01T19:09:22;4.60;39.00
39655;DHT22;25336;59.944;11.010;2023-04-01T19:14:52;4.30;39.40
39655;DHT22;25336;59.944;11.010;2023-04-01T19:17:42;4.10;40.20
39655;DHT22;25336;59.944;11.010;2023-04-01T19:24:00;3.80;40.80
39655;DHT22;25336;59.944;11.010;2023-04-01T19:37:40;3.10;41.60
39655;DHT22;25336;59.944;11.010;2023-04-01T19:46:10;2.80;42.30
39655;DHT22;25336;59.944;11.010;2023-04-01T19:56:24;2.50;42.60
39655;DHT22;25336;59.944;11.010;2023-04-01T20:04:48;2.20;43.20
39655;DHT22;25336;59.944;11.010;2023-04-01T20:12:39;2.00;43.60
39655;DHT22;25336;59.944;11.010;2023-04-01T20:17:52;1.90;44.10
39655;DHT22;25336;59.944;11.010;2023-04-01T20:20:22;1.80;44.00
39655;DHT22;25336;59.944;11.010;2023-04-01T20:23:03;1.70;44.10
39655;DHT22;25336;59.944;11.010;2023-04-01T20:25:56;1.70;44.30
39655;DHT22;25336;59.944;11.010;2023-04-01T20:28:30;1.60;45.00
39655;DHT22;25336;59.944;11.010;2023-04-01T20:51:15;1.10;45.90
39655;DHT22;25336;59.944;11.010;2023-04-01T20:59:35;0.90;46.10
39655;DHT22;25336;59.944;11.010;2023-04-01T21:05:09;0.80;46.20
39655;DHT22;25336;59.944;11.010;2023-04-01T21:07:58;0.70;46.30
39655;DHT22;25336;59.944;11.010;2023-04-01T21:10:56;0.70;46.30
39655;DHT22;25336;59.944;11.010;2023-04-01T21:13:37;0.70;46.60
39655;DHT22;25336;59.944;11.010;2023-04-01T21:32:14;0.30;47.20
39655;DHT22;25336;59.944;11.010;2023-04-01T21:34:42;0.30;47.40
39655;DHT22;25336;59.944;11.010;2023-04-01T21:37:34;0.20;47.50
39655;DHT22;25336;59.944;11.010;2023-04-01T21:46:00;0.10;47.40
39655;DHT22;25336;59.944;11.010;2023-04-01T21:54:20;0.00;48.00
39655;DHT22;25336;59.944;11.010;2023-04-01T22:05:20;-0.20;49.00
39655;DHT22;25336;59.944;11.010;2023-04-01T22:18:49;-0.30;48.90
39655;DHT22;25336;59.944;11.010;2023-04-01T22:21:39;-0.40;48.70
39655;DHT22;25336;59.944;11.010;2023-04-01T22:27:08;-0.40;48.80
39655;DHT22;25336;59.944;11.010;2023-04-01T22:29:48;-0.50;49.00
39655;DHT22;25336;59.944;11.010;2023-04-01T22:32:21;-0.50;48.90
39655;DHT22;25336;59.944;11.010;2023-04-01T22:34:57;-0.50;48.90
39655;DHT22;25336;59.944;11.010;2023-04-01T22:37:47;-0.50;49.00
39655;DHT22;25336;59.944;11.010;2023-04-01T22:43:07;-0.60;49.10
39655;DHT22;25336;59.944;11.010;2023-04-01T22:51:13;-0.70;49.30
39655;DHT22;25336;59.944;11.010;2023-04-01T22:56:32;-0.70;49.20
39655;DHT22;25336;59.944;11.010;2023-04-01T23:01:48;-0.70;49.70
39655;DHT22;25336;59.944;11.010;2023-04-01T23:04:21;-0.70;49.00
39655;DHT22;25336;59.944;11.010;2023-04-01T23:06:53;-1.10;48.70
39655;DHT22;25336;59.944;11.010;2023-04-01T23:12:10;-0.70;48.70
39655;DHT22;25336;59.944;11.010;2023-04-01T23:14:58;-0.70;48.70
39655;DHT22;25336;59.944;11.010;2023-04-01T23:20:27;-0.70;48.60
39655;DHT22;25336;59.944;11.010;2023-04-01T23:38:35;-0.60;48.30
39655;DHT22;25336;59.944;11.010;2023-04-01T23:41:03;-0.60;48.20
39655;DHT22;25336;59.944;11.010;2023-04-01T23:43:40;-0.60;48.20
39655;DHT22;25336;59.944;11.010;2023-04-01T23:46:07;-0.60;48.20
39655;DHT22;25336;59.944;11.010;2023-04-01T23:48:38;-0.60;48.00
39655;DHT22;25336;59.944;11.010;2023-04-01T23:51:22;0.20;48.40
39655;DHT22;25336;59.944;11.010;2023-04-01T23:54:03;-0.60;48.10
39655;DHT22;25336;59.944;11.010;2023-04-01T23:56:46;-0.60;48.00
39655;DHT22;25336;59.944;11.010;2023-04-01T23:59:33;-0.60;48.10
